Time;durP1;ratioP1;P1;durP2;ratioP2;P2;SDS_P1;SDS_P2;PMS_P1;PMS_P2;Temp;Humidity;BMP_temperature;BMP_pressure;BME280_temperature;BME280_humidity;BME280_pressure;Samples;Min_cycle;Max_cycle;Signal;HPM_P1;HPM_P2
2023/04/25 00:01:08;;;;;;;15.33;3.37;;;7.50;99.90;;;;;;5074852;28;20020;-84
2023/04/25 00:03:35;;;;;;;12.17;2.97;;;7.40;99.90;;;;;;5075226;28;20048;-84
2023/04/25 00:06:01;;;;;;;14.00;2.90;;;7.40;99.90;;;;;;5074760;28;20025;-84
2023/04/25 00:08:28;;;;;;;16.17;3.47;;;7.40;99.90;;;;;;5075935;28;20021;-85
2023/04/25 00:10:54;;;;;;;11.67;3.27;;;7.30;99.90;;;;;;5075933;28;20494;-84
2023/04/25 00:13:20;;;;;;;14.60;3.60;;;7.30;99.90;;;;;;5075054;28;20032;-85
2023/04/25 00:15:46;;;;;;;16.70;3.23;;;7.30;99.90;;;;;;5074841;28;20024;-85
2023/04/25 00:18:11;;;;;;;12.83;2.83;;;7.20;99.90;;;;;;5074417;28;20068;-84
2023/04/25 00:20:37;;;;;;;15.30;2.53;;;7.20;99.90;;;;;;5074728;28;20031;-85
2023/04/25 00:23:03;;;;;;;10.37;2.90;;;7.20;99.90;;;;;;5075867;28;20036;-84
2023/04/25 00:25:28;;;;;;;16.90;3.90;;;7.20;99.90;;;;;;5074921;28;20106;-85
2023/04/25 00:27:54;;;;;;;12.80;2.90;;;7.10;99.90;;;;;;5075629;28;20526;-85
2023/04/25 00:30:20;;;;;;;17.30;3.37;;;7.10;99.90;;;;;;5074460;28;20534;-85
2023/04/25 00:32:45;;;;;;;16.43;3.23;;;7.10;99.90;;;;;;5075594;28;20040;-84
2023/04/25 00:35:11;;;;;;;15.17;2.80;;;7.10;99.90;;;;;;5074331;28;20098;-85
2023/04/25 00:37:37;;;;;;;16.40;3.33;;;7.00;99.90;;;;;;5074308;28;20077;-84
2023/04/25 00:40:06;;;;;;;13.90;4.37;;;6.90;99.90;;;;;;5058035;28;20495;-84
2023/04/25 00:42:32;;;;;;;16.13;3.40;;;7.00;99.90;;;;;;5075298;28;20086;-85
2023/04/25 00:44:59;;;;;;;11.47;3.90;;;7.00;99.90;;;;;;5074080;28;20419;-84
2023/04/25 00:47:25;;;;;;;12.53;3.60;;;7.00;99.90;;;;;;5075580;28;20112;-85
2023/04/25 00:49:53;;;;;;;13.33;3.60;;;7.10;99.90;;;;;;5073955;28;20029;-85
2023/04/25 00:52:19;;;;;;;13.60;3.80;;;7.00;99.90;;;;;;5074119;28;20028;-83
2023/04/25 00:54:45;;;;;;;12.70;3.60;;;7.00;99.90;;;;;;5075481;28;20059;-86
2023/04/25 00:57:11;;;;;;;13.27;3.33;;;7.00;99.90;;;;;;5075525;28;20029;-85
2023/04/25 00:59:38;;;;;;;9.63;3.50;;;6.90;99.90;;;;;;5075367;28;20036;-84
2023/04/25 01:02:05;;;;;;;13.57;3.00;;;6.90;99.90;;;;;;5075176;28;20376;-85
2023/04/25 01:04:30;;;;;;;18.80;3.60;;;6.90;99.90;;;;;;5074302;28;20032;-85
2023/04/25 01:06:57;;;;;;;11.80;3.37;;;6.90;99.90;;;;;;5073719;28;20032;-85
2023/04/25 01:09:23;;;;;;;12.40;3.80;;;6.80;99.90;;;;;;5074990;28;20024;-85
2023/04/25 01:11:50;;;;;;;14.00;3.60;;;6.70;99.90;;;;;;5074979;28;20507;-85
2023/04/25 01:14:15;;;;;;;9.67;2.80;;;6.60;99.90;;;;;;5074029;28;20035;-85
2023/04/25 01:16:42;;;;;;;11.60;3.27;;;6.70;99.90;;;;;;5075293;28;20095;-84
2023/04/25 01:19:13;;;;;;;13.53;4.27;;;6.70;99.90;;;;;;5073569;28;20040;-84
2023/04/25 01:21:39;;;;;;;9.43;3.63;;;6.70;99.90;;;;;;5074580;28;20484;-84
2023/04/25 01:24:06;;;;;;;16.57;4.80;;;6.60;99.90;;;;;;5074634;28;20027;-84
2023/04/25 01:26:32;;;;;;;10.77;3.33;;;6.60;99.90;;;;;;5074631;28;20071;-85
2023/04/25 01:28:58;;;;;;;10.10;3.00;;;6.70;99.90;;;;;;5072020;28;20033;-84
2023/04/25 01:31:24;;;;;;;15.47;3.90;;;6.60;99.90;;;;;;5074506;28;20037;-83
2023/04/25 01:33:50;;;;;;;14.77;4.27;;;6.60;99.90;;;;;;5072895;28;20107;-84
2023/04/25 01:36:16;;;;;;;17.97;3.83;;;6.60;99.90;;;;;;5072917;28;20115;-84
2023/04/25 01:38:43;;;;;;;15.27;3.90;;;6.60;99.90;;;;;;5072891;28;20412;-84
2023/04/25 01:41:09;;;;;;;15.53;3.70;;;6.60;99.90;;;;;;5073059;28;20078;-83
2023/04/25 01:43:35;;;;;;;16.83;3.87;;;6.70;99.90;;;;;;5072830;28;20064;-84
2023/04/25 01:46:01;;;;;;;17.40;4.17;;;6.60;99.90;;;;;;5072844;28;20064;-84
2023/04/25 01:48:27;;;;;;;15.83;4.30;;;6.70;99.90;;;;;;5074424;28;20537;-85
2023/04/25 01:50:52;;;;;;;22.50;3.67;;;6.70;99.90;;;;;;5073046;28;20059;-84
2023/04/25 01:53:18;;;;;;;17.60;4.77;;;6.70;99.90;;;;;;5074004;28;20028;-84
2023/04/25 01:55:44;;;;;;;18.53;4.60;;;6.80;99.90;;;;;;5055962;28;20025;-84
2023/04/25 01:58:12;;;;;;;15.00;4.13;;;6.70;99.90;;;;;;5073406;28;20507;-84
2023/04/25 02:00:38;;;;;;;19.03;4.27;;;6.80;99.90;;;;;;5073815;28;20048;-84
2023/04/25 02:03:04;;;;;;;16.97;4.13;;;6.70;99.90;;;;;;5072422;28;20044;-84
2023/04/25 02:05:40;;;;;;;13.20;3.57;;;6.80;99.90;;;;;;5058497;28;20035;-84
2023/04/25 02:08:07;;;;;;;12.87;3.47;;;6.80;99.90;;;;;;5053891;28;20538;-85
2023/04/25 02:10:33;;;;;;;14.23;5.27;;;6.70;99.90;;;;;;5053453;28;20036;-84
2023/04/25 02:12:59;;;;;;;18.50;4.37;;;6.80;99.90;;;;;;5052343;28;20047;-84
2023/04/25 02:15:24;;;;;;;14.93;4.07;;;6.80;99.90;;;;;;5053558;28;20477;-84
2023/04/25 02:17:52;;;;;;;19.77;5.80;;;6.80;99.90;;;;;;5052456;28;20086;-83
2023/04/25 02:20:19;;;;;;;10.23;3.87;;;6.80;99.90;;;;;;5053533;28;20041;-83
2023/04/25 02:22:45;;;;;;;18.67;4.50;;;6.80;99.90;;;;;;5069036;28;20037;-85
2023/04/25 02:25:12;;;;;;;13.73;3.57;;;6.70;99.90;;;;;;5053617;28;20089;-84
2023/04/25 02:27:37;;;;;;;13.33;3.87;;;6.70;99.90;;;;;;5053764;28;20550;-84
2023/04/25 02:30:04;;;;;;;15.93;4.33;;;6.70;99.90;;;;;;5053608;28;20111;-84
2023/04/25 02:32:30;;;;;;;16.17;3.40;;;6.60;99.90;;;;;;5052270;28;20156;-83
2023/04/25 02:34:58;;;;;;;17.43;4.23;;;6.60;99.90;;;;;;5053497;28;20057;-84
2023/04/25 02:37:24;;;;;;;16.13;3.87;;;6.70;99.90;;;;;;5053553;28;20021;-83
2023/04/25 02:39:50;;;;;;;18.77;4.17;;;6.60;99.90;;;;;;5053235;28;20045;-84
2023/04/25 02:42:15;;;;;;;17.20;4.13;;;6.60;99.90;;;;;;5053427;28;20033;-84
2023/04/25 02:44:41;;;;;;;18.37;4.50;;;6.50;99.90;;;;;;5051865;28;20032;-84
2023/04/25 02:47:07;;;;;;;16.30;3.90;;;6.50;99.90;;;;;;5051999;28;20040;-84
2023/04/25 02:49:32;;;;;;;12.73;4.00;;;6.40;99.90;;;;;;5053272;28;20061;-83
2023/04/25 02:51:58;;;;;;;20.43;4.30;;;6.40;99.90;;;;;;5053142;28;20064;-84
2023/04/25 02:54:23;;;;;;;14.97;4.17;;;6.50;99.90;;;;;;5051784;28;20035;-84
2023/04/25 02:56:49;;;;;;;14.93;3.93;;;6.40;99.90;;;;;;5051878;28;20034;-84
2023/04/25 02:59:15;;;;;;;12.90;3.63;;;6.30;99.90;;;;;;5051827;28;20108;-83
2023/04/25 03:01:41;;;;;;;13.07;4.60;;;6.30;99.90;;;;;;5053000;28;20029;-84
2023/04/25 03:04:06;;;;;;;15.23;3.67;;;6.30;99.90;;;;;;5053026;28;20057;-85
2023/04/25 03:06:32;;;;;;;17.50;4.00;;;6.20;99.90;;;;;;5053145;28;20056;-84
2023/04/25 03:08:57;;;;;;;15.50;4.27;;;6.20;99.90;;;;;;5051721;28;20124;-84
2023/04/25 03:11:26;;;;;;;14.50;4.00;;;6.30;99.90;;;;;;5055486;28;20021;-84
2023/04/25 03:13:51;;;;;;;13.20;4.00;;;6.20;99.90;;;;;;5055756;28;20025;-85
2023/04/25 03:16:17;;;;;;;19.30;4.03;;;6.20;99.90;;;;;;5055718;28;20160;-84
2023/04/25 03:18:43;;;;;;;17.17;3.93;;;6.10;99.90;;;;;;5056143;28;20409;-84
2023/04/25 03:21:08;;;;;;;14.37;3.83;;;6.10;99.90;;;;;;5057029;28;20112;-85
2023/04/25 03:23:34;;;;;;;17.53;4.40;;;6.10;99.90;;;;;;5056931;28;20029;-85
2023/04/25 03:26:00;;;;;;;13.07;3.37;;;6.10;99.90;;;;;;5055809;28;20025;-85
2023/04/25 03:28:26;;;;;;;14.40;3.83;;;6.10;99.90;;;;;;5056007;28;20049;-85
2023/04/25 03:30:51;;;;;;;14.23;3.83;;;6.00;99.90;;;;;;5055825;28;20025;-85
2023/04/25 03:33:17;;;;;;;20.83;4.33;;;5.90;99.90;;;;;;5057131;28;20489;-85
2023/04/25 03:35:42;;;;;;;15.00;3.67;;;5.90;99.90;;;;;;5056856;28;20048;-85
2023/04/25 03:38:08;;;;;;;12.13;3.23;;;5.80;99.90;;;;;;5055366;28;20033;-82
2023/04/25 03:40:34;;;;;;;15.77;4.93;;;5.80;99.90;;;;;;5055560;28;20112;-85
2023/04/25 03:42:59;;;;;;;17.87;4.10;;;5.70;99.90;;;;;;5055425;28;20554;-84
2023/04/25 03:45:26;;;;;;;15.43;3.97;;;5.70;99.90;;;;;;5056821;28;20068;-85
2023/04/25 03:47:51;;;;;;;14.77;3.43;;;5.70;99.90;;;;;;5056368;28;20033;-85
2023/04/25 03:50:17;;;;;;;12.23;3.77;;;5.60;99.90;;;;;;5056357;28;20066;-84
2023/04/25 03:52:43;;;;;;;16.20;4.03;;;5.70;99.90;;;;;;5054907;28;20066;-85
2023/04/25 03:55:09;;;;;;;17.57;4.13;;;5.60;99.90;;;;;;5055323;28;20098;-85
2023/04/25 03:57:35;;;;;;;14.17;4.30;;;5.60;99.90;;;;;;5056333;28;20040;-85
2023/04/25 04:00:01;;;;;;;14.37;4.37;;;5.70;99.90;;;;;;5056531;28;20028;-85
2023/04/25 04:02:26;;;;;;;13.53;3.80;;;5.70;99.90;;;;;;5060978;28;20400;-85
2023/04/25 04:04:52;;;;;;;14.73;4.87;;;5.70;99.90;;;;;;5059119;28;20040;-84
2023/04/25 04:07:18;;;;;;;13.03;5.07;;;5.70;99.90;;;;;;5071839;28;20029;-83
2023/04/25 04:09:43;;;;;;;15.33;4.90;;;5.60;99.90;;;;;;5077167;28;20557;-83
2023/04/25 04:12:09;;;;;;;17.90;5.33;;;5.60;99.90;;;;;;5071680;28;20033;-84
2023/04/25 04:14:35;;;;;;;15.30;4.73;;;5.60;99.90;;;;;;5066840;28;20385;-84
2023/04/25 04:17:00;;;;;;;18.63;5.50;;;5.50;99.90;;;;;;5076150;28;20032;-84
2023/04/25 04:19:26;;;;;;;19.87;5.93;;;5.40;99.90;;;;;;5073765;28;20068;-83
2023/04/25 04:21:52;;;;;;;20.90;6.13;;;5.30;99.90;;;;;;5073135;28;20032;-84
2023/04/25 04:24:20;;;;;;;18.20;5.53;;;5.30;99.90;;;;;;5073536;28;20033;-84
2023/04/25 04:26:46;;;;;;;19.80;5.90;;;5.30;99.90;;;;;;5073451;28;20050;-83
2023/04/25 04:29:12;;;;;;;18.30;5.90;;;5.30;99.90;;;;;;5074666;28;20060;-83
2023/04/25 04:31:38;;;;;;;14.27;5.93;;;5.20;99.90;;;;;;5073210;28;20028;-84
2023/04/25 04:34:04;;;;;;;16.13;6.17;;;5.30;99.90;;;;;;5073437;28;20077;-83
2023/04/25 04:36:30;;;;;;;18.60;6.23;;;5.30;99.90;;;;;;5074969;28;20029;-84
2023/04/25 04:38:56;;;;;;;20.10;6.40;;;5.20;99.90;;;;;;5074268;28;20099;-86
2023/04/25 04:41:22;;;;;;;17.03;5.57;;;5.20;99.90;;;;;;5074619;28;20103;-84
2023/04/25 04:43:47;;;;;;;16.33;5.93;;;5.20;99.90;;;;;;5073091;28;20062;-84
2023/04/25 04:46:14;;;;;;;13.60;6.53;;;5.30;99.90;;;;;;5074252;28;20028;-84
2023/04/25 04:48:40;;;;;;;16.97;5.13;;;5.30;99.90;;;;;;5073002;28;20048;-83
2023/04/25 04:51:06;;;;;;;19.97;5.50;;;5.40;99.90;;;;;;5056240;28;20480;-82
2023/04/25 04:53:32;;;;;;;19.97;4.70;;;5.40;99.90;;;;;;5074284;28;20100;-84
2023/04/25 04:55:58;;;;;;;15.30;3.97;;;5.40;99.90;;;;;;5056226;28;20055;-83
2023/04/25 04:58:23;;;;;;;19.43;4.33;;;5.50;99.90;;;;;;5072926;28;20029;-83
2023/04/25 05:00:49;;;;;;;14.83;4.80;;;5.40;99.90;;;;;;5072976;28;20477;-82
2023/04/25 05:03:15;;;;;;;15.33;4.50;;;5.60;99.90;;;;;;5072845;28;20029;-82
2023/04/25 05:05:41;;;;;;;17.50;4.07;;;5.70;99.90;;;;;;5055943;28;20187;-83
2023/04/25 05:08:07;;;;;;;14.90;4.50;;;5.70;99.90;;;;;;5072663;28;20043;-83
2023/04/25 05:10:32;;;;;;;15.43;4.47;;;5.70;99.90;;;;;;5072578;28;20033;-81
2023/04/25 05:12:58;;;;;;;20.77;4.93;;;5.80;99.90;;;;;;5073673;28;20032;-82
2023/04/25 05:15:24;;;;;;;13.50;3.80;;;5.80;99.90;;;;;;5073641;28;20032;-82
2023/04/25 05:17:49;;;;;;;12.73;3.73;;;5.90;99.90;;;;;;5073749;28;20033;-82
2023/04/25 05:20:15;;;;;;;12.53;3.43;;;5.90;99.90;;;;;;5022965;28;1433803;-82
2023/04/25 05:22:41;;;;;;;18.10;3.47;;;6.00;99.90;;;;;;5072961;28;20347;-82
2023/04/25 05:25:08;;;;;;;13.73;3.10;;;6.10;99.90;;;;;;5074778;28;20036;-83
2023/04/25 05:27:33;;;;;;;18.83;3.53;;;6.10;99.90;;;;;;5074120;28;20032;-83
2023/04/25 05:29:59;;;;;;;13.07;3.27;;;6.10;99.90;;;;;;5072910;28;20021;-83
2023/04/25 05:32:25;;;;;;;13.73;3.10;;;6.20;99.90;;;;;;5073733;28;20162;-83
2023/04/25 05:34:51;;;;;;;10.97;3.30;;;6.20;99.90;;;;;;5072498;28;20024;-84
2023/04/25 05:37:17;;;;;;;18.47;3.57;;;6.30;99.90;;;;;;5072805;28;20039;-83
2023/04/25 05:39:43;;;;;;;11.37;2.73;;;6.40;99.90;;;;;;5072839;28;20036;-83
2023/04/25 05:42:08;;;;;;;9.30;2.93;;;6.40;99.90;;;;;;5072895;28;20032;-85
2023/04/25 05:44:34;;;;;;;14.60;3.50;;;6.40;99.90;;;;;;5056128;28;20028;-84
2023/04/25 05:46:59;;;;;;;11.47;2.77;;;6.70;99.90;;;;;;5072825;28;20041;-84
2023/04/25 05:49:25;;;;;;;14.33;2.73;;;6.60;99.90;;;;;;5073008;28;20021;-85
2023/04/25 05:51:51;;;;;;;16.60;2.97;;;6.60;99.90;;;;;;5073164;28;20032;-85
2023/04/25 05:54:16;;;;;;;12.93;3.47;;;6.70;99.90;;;;;;5072552;28;20089;-85
2023/04/25 05:56:42;;;;;;;11.63;2.80;;;6.80;99.90;;;;;;5072532;28;20029;-85
2023/04/25 05:59:07;;;;;;;13.47;3.03;;;6.90;99.90;;;;;;5055946;28;20025;-85
2023/04/25 06:01:33;;;;;;;9.83;2.40;;;6.90;99.90;;;;;;5072665;28;20028;-83
2023/04/25 06:03:59;;;;;;;10.50;2.53;;;6.90;99.90;;;;;;5055864;28;20025;-85
2023/04/25 06:06:26;;;;;;;8.73;2.43;;;7.00;99.90;;;;;;5072385;28;20067;-84
2023/04/25 06:08:52;;;;;;;9.33;2.47;;;7.00;99.90;;;;;;5073602;28;20024;-86
2023/04/25 06:11:17;;;;;;;15.20;3.27;;;7.10;99.90;;;;;;5073290;28;20389;-86
2023/04/25 06:13:43;;;;;;;8.20;2.30;;;7.20;99.90;;;;;;5055721;28;20197;-86
2023/04/25 06:16:09;;;;;;;9.20;2.90;;;7.20;99.90;;;;;;5072239;28;20031;-85
2023/04/25 06:18:35;;;;;;;11.47;2.43;;;7.20;99.90;;;;;;5055329;28;20057;-83
2023/04/25 06:21:00;;;;;;;8.97;2.10;;;7.30;99.90;;;;;;5072256;28;20098;-84
2023/04/25 06:23:26;;;;;;;16.03;1.70;;;7.40;99.90;;;;;;5073325;28;20042;-86
2023/04/25 06:25:52;;;;;;;8.67;2.97;;;7.40;99.90;;;;;;5072293;28;20070;-85
2023/04/25 06:28:17;;;;;;;7.43;1.90;;;7.50;99.90;;;;;;5072196;28;20036;-86
2023/04/25 06:30:43;;;;;;;10.53;2.57;;;7.60;99.90;;;;;;5071916;28;20029;-85
2023/04/25 06:33:08;;;;;;;8.03;1.53;;;7.60;99.90;;;;;;5073556;28;20025;-86
2023/04/25 06:35:34;;;;;;;9.90;2.17;;;7.70;99.90;;;;;;5072137;28;20024;-85
2023/04/25 06:38:00;;;;;;;8.90;2.20;;;7.70;99.90;;;;;;5072093;28;20020;-85
2023/04/25 06:40:26;;;;;;;10.23;1.87;;;7.80;99.90;;;;;;5073399;28;20027;-85
2023/04/25 06:42:51;;;;;;;11.27;2.30;;;7.90;99.90;;;;;;5072117;28;20033;-85
2023/04/25 06:45:17;;;;;;;11.53;2.60;;;8.00;99.90;;;;;;5073126;28;20136;-86
2023/04/25 06:47:43;;;;;;;10.90;2.10;;;8.00;99.90;;;;;;5071936;28;20373;-86
2023/04/25 06:50:09;;;;;;;10.00;2.20;;;8.10;99.90;;;;;;5071806;28;20119;-86
2023/04/25 06:52:34;;;;;;;8.63;1.87;;;8.20;99.90;;;;;;5071797;28;20040;-86
2023/04/25 06:55:00;;;;;;;13.97;1.93;;;8.30;99.90;;;;;;5073107;28;20032;-86
2023/04/25 06:57:25;;;;;;;12.90;2.27;;;8.30;99.90;;;;;;5072200;28;20078;-86
2023/04/25 06:59:51;;;;;;;10.43;1.53;;;8.40;99.90;;;;;;5071634;28;20017;-85
2023/04/25 07:02:17;;;;;;;9.30;1.73;;;8.50;99.90;;;;;;5071903;28;20029;-85
2023/04/25 07:04:42;;;;;;;9.70;1.87;;;8.50;99.90;;;;;;5071727;28;20048;-85
2023/04/25 07:07:08;;;;;;;10.37;2.00;;;8.60;99.90;;;;;;5073227;28;20055;-85
2023/04/25 07:09:33;;;;;;;11.80;2.00;;;8.70;99.90;;;;;;5072277;28;20152;-85
2023/04/25 07:12:01;;;;;;;9.13;1.60;;;8.70;99.90;;;;;;5072873;28;20029;-83
2023/04/25 07:14:27;;;;;;;8.00;1.63;;;8.80;99.90;;;;;;5073062;28;20032;-85
2023/04/25 07:16:52;;;;;;;9.30;1.70;;;8.80;99.90;;;;;;5071777;28;20029;-86
2023/04/25 07:19:18;;;;;;;12.87;2.27;;;8.90;99.90;;;;;;5054926;28;20056;-84
2023/04/25 07:21:44;;;;;;;15.10;2.50;;;8.90;99.90;;;;;;5071758;28;20027;-85
2023/04/25 07:24:09;;;;;;;9.13;1.33;;;8.90;99.90;;;;;;5073044;28;20064;-83
2023/04/25 07:26:35;;;;;;;14.47;1.90;;;8.90;98.70;;;;;;5071885;28;20051;-84
2023/04/25 07:29:00;;;;;;;9.80;1.53;;;8.90;97.80;;;;;;5071450;28;20484;-86
2023/04/25 07:31:27;;;;;;;11.27;1.57;;;8.90;97.60;;;;;;5071924;28;20075;-85
2023/04/25 07:33:53;;;;;;;8.07;1.33;;;8.90;97.30;;;;;;5071309;28;20064;-86
2023/04/25 07:36:18;;;;;;;12.00;1.33;;;8.90;97.20;;;;;;5072152;28;20029;-83
2023/04/25 07:38:44;;;;;;;9.90;1.47;;;9.00;96.40;;;;;;5071684;28;20056;-83
2023/04/25 07:41:09;;;;;;;9.73;1.60;;;8.90;95.80;;;;;;5055439;28;20035;-82
2023/04/25 07:43:35;;;;;;;10.37;1.50;;;8.90;94.70;;;;;;5071862;28;20040;-84
2023/04/25 07:46:01;;;;;;;8.97;1.30;;;8.80;94.70;;;;;;5072861;28;20047;-86
2023/04/25 07:48:26;;;;;;;10.30;1.17;;;8.90;94.50;;;;;;5054391;28;20029;-82
2023/04/25 07:50:52;;;;;;;7.87;1.20;;;8.90;94.80;;;;;;5054643;28;20135;-85
2023/04/25 07:53:18;;;;;;;8.50;1.10;;;8.90;94.50;;;;;;5071709;28;20486;-83
2023/04/25 07:55:44;;;;;;;8.70;1.50;;;9.00;93.50;;;;;;5055537;28;20027;-82
2023/04/25 07:58:11;;;;;;;8.60;1.20;;;9.00;93.30;;;;;;5075567;28;20017;-86
2023/04/25 08:00:37;;;;;;;11.13;1.80;;;9.00;93.50;;;;;;5076453;28;20028;-84
2023/04/25 08:03:03;;;;;;;10.50;1.87;;;9.10;93.40;;;;;;5076437;28;20025;-82
2023/04/25 08:05:29;;;;;;;16.37;1.47;;;9.20;93.00;;;;;;5075192;28;20025;-84
2023/04/25 08:07:56;;;;;;;12.93;1.70;;;9.30;92.70;;;;;;5075018;28;20029;-83
2023/04/25 08:10:22;;;;;;;9.50;1.70;;;9.30;92.00;;;;;;5074934;28;20392;-82
2023/04/25 08:12:48;;;;;;;12.27;1.37;;;9.30;91.80;;;;;;5074714;28;20032;-85
2023/04/25 08:15:14;;;;;;;8.00;1.40;;;9.40;92.20;;;;;;5075288;28;20043;-84
2023/04/25 08:17:40;;;;;;;11.63;1.60;;;9.50;91.80;;;;;;5075044;28;20362;-83
2023/04/25 08:20:06;;;;;;;6.73;1.00;;;9.60;91.20;;;;;;5057743;28;20505;-84
2023/04/25 08:22:32;;;;;;;8.47;1.10;;;9.70;90.30;;;;;;5075532;28;20516;-83
2023/04/25 08:24:58;;;;;;;5.60;1.00;;;9.70;90.50;;;;;;5058316;28;20078;-83
2023/04/25 08:27:23;;;;;;;4.83;0.90;;;9.80;88.70;;;;;;5074885;28;20028;-86
2023/04/25 08:29:50;;;;;;;5.67;0.97;;;9.90;86.30;;;;;;5075873;28;20032;-81
2023/04/25 08:32:16;;;;;;;4.93;0.80;;;10.00;83.80;;;;;;5075833;28;20515;-83
2023/04/25 08:34:43;;;;;;;5.10;0.70;;;10.00;82.50;;;;;;5075765;28;20056;-85
2023/04/25 08:37:12;;;;;;;8.03;1.10;;;10.00;82.40;;;;;;5074206;28;20465;-83
2023/04/25 08:39:38;;;;;;;10.60;1.23;;;10.00;80.00;;;;;;5074493;28;20103;-83
2023/04/25 08:42:09;;;;;;;5.93;1.20;;;10.00;79.20;;;;;;5057844;28;20166;-82
2023/04/25 08:44:35;;;;;;;8.47;1.73;;;10.00;79.80;;;;;;5075754;28;20031;-82
2023/04/25 08:47:05;;;;;;;8.40;1.10;;;10.10;80.20;;;;;;5074406;28;20473;-82
2023/04/25 08:49:33;;;;;;;4.47;1.00;;;10.20;80.20;;;;;;5075350;28;20036;-84
2023/04/25 08:52:06;;;;;;;9.03;1.13;;;10.20;78.40;;;;;;5074315;28;20474;-82
2023/04/25 08:54:32;;;;;;;6.03;1.13;;;10.20;76.60;;;;;;5075582;28;20036;-84
2023/04/25 08:57:05;;;;;;;7.97;1.00;;;10.10;77.00;;;;;;5058030;28;20082;-84
2023/04/25 08:59:32;;;;;;;5.00;0.80;;;10.10;76.70;;;;;;5074052;28;20020;-83
2023/04/25 09:01:57;;;;;;;7.10;0.80;;;10.10;76.40;;;;;;5074078;28;20020;-83
2023/04/25 09:04:23;;;;;;;10.50;1.00;;;10.10;75.60;;;;;;5074407;28;20025;-83
2023/04/25 09:06:49;;;;;;;5.13;1.00;;;10.20;76.00;;;;;;5074200;28;20032;-82
2023/04/25 09:09:15;;;;;;;5.83;1.00;;;10.20;76.30;;;;;;5056722;28;20115;-83
2023/04/25 09:11:41;;;;;;;4.80;0.80;;;10.20;76.80;;;;;;5075601;28;20024;-82
2023/04/25 09:14:25;;;;;;;6.47;0.90;;;10.20;76.90;;;;;;5075597;28;20112;-84
2023/04/25 09:17:01;;;;;;;;;;;10.10;75.90;;;;;;5074926;28;20057;-84
2023/04/25 09:19:28;;;;;;;5.33;0.93;;;10.00;76.30;;;;;;5073350;28;20011;-82
2023/04/25 09:21:55;;;;;;;3.50;0.70;;;10.00;77.20;;;;;;5074945;28;20017;-82
2023/04/25 09:24:42;;;;;;;5.57;0.60;;;9.90;77.00;;;;;;5074900;28;20468;-83
2023/04/25 09:27:11;;;;;;;8.93;1.00;;;9.90;75.40;;;;;;5074719;28;20024;-84
2023/04/25 09:29:38;;;;;;;4.60;0.60;;;9.80;74.30;;;;;;5074927;28;20031;-84
2023/04/25 09:32:19;;;;;;;5.13;1.20;;;9.70;71.60;;;;;;5074850;28;20035;-83
2023/04/25 09:34:56;;;;;;;2.83;0.60;;;9.70;71.50;;;;;;5074971;28;20024;-82
2023/04/25 09:37:27;;;;;;;4.57;0.60;;;9.70;72.50;;;;;;5073190;28;20107;-83
2023/04/25 09:39:58;;;;;;;3.87;0.60;;;9.70;72.10;;;;;;5074379;28;20505;-84
2023/04/25 09:42:25;;;;;;;5.57;0.87;;;9.70;71.90;;;;;;5074271;28;20411;-84
2023/04/25 09:44:55;;;;;;;7.83;1.07;;;9.70;71.60;;;;;;5074262;28;20025;-83
2023/04/25 09:47:23;;;;;;;7.27;1.27;;;9.70;71.10;;;;;;5072930;28;20028;-82
2023/04/25 09:49:49;;;;;;;5.83;1.07;;;9.80;71.40;;;;;;5073013;28;20024;-85
2023/04/25 09:52:17;;;;;;;9.30;1.63;;;9.80;71.60;;;;;;5073868;28;20104;-85
2023/04/25 09:54:43;;;;;;;6.33;0.70;;;9.90;72.50;;;;;;5074079;28;20469;-83
2023/04/25 09:57:17;;;;;;;6.13;0.97;;;10.00;71.60;;;;;;5073735;28;20031;-82
2023/04/25 09:59:55;;;;;;;6.32;0.98;;;10.00;71.50;;;;;;5074059;28;20019;-83
2023/04/25 10:02:24;;;;;;;7.73;0.60;;;10.10;71.60;;;;;;5074095;28;20423;-84
2023/04/25 10:04:54;;;;;;;8.83;1.20;;;10.10;71.50;;;;;;5074413;28;20039;-81
2023/04/25 10:07:23;;;;;;;4.93;0.57;;;10.20;70.30;;;;;;5072959;28;20094;-82
2023/04/25 10:09:50;;;;;;;6.83;1.10;;;10.20;69.50;;;;;;5073738;28;20047;-84
2023/04/25 10:12:17;;;;;;;6.40;0.70;;;10.40;70.10;;;;;;5074069;28;20532;-81
2023/04/25 10:14:43;;;;;;;4.87;0.60;;;10.60;71.30;;;;;;5074677;28;20024;-85
2023/04/25 10:17:13;;;;;;;3.42;0.55;;;10.80;71.40;;;;;;5073327;28;20033;-84
2023/04/25 10:19:39;;;;;;;5.32;0.65;;;10.90;71.40;;;;;;5073081;28;20048;-82
2023/04/25 10:22:12;;;;;;;5.75;0.95;;;11.10;71.20;;;;;;5074298;28;20074;-83
2023/04/25 10:24:39;;;;;;;8.90;1.15;;;11.20;70.40;;;;;;5072841;28;20115;-84
2023/04/25 10:27:06;;;;;;;6.05;0.90;;;11.20;70.10;;;;;;5072340;28;20107;-83
2023/04/25 10:29:31;;;;;;;6.03;0.60;;;11.20;69.30;;;;;;5073604;28;20033;-85
2023/04/25 10:31:57;;;;;;;6.75;1.05;;;11.20;67.80;;;;;;5072641;28;20066;-86
2023/04/25 10:34:40;;;;;;;6.03;0.57;;;11.30;68.30;;;;;;5073414;28;20150;-82
2023/04/25 10:37:09;;;;;;;3.20;0.50;;;11.40;66.30;;;;;;5073166;28;20587;-82
2023/04/25 10:39:35;;;;;;;5.57;0.60;;;11.50;65.00;;;;;;5073940;28;20111;-82
2023/04/25 10:42:02;;;;;;;4.05;0.50;;;11.50;64.70;;;;;;5072682;28;20064;-82
2023/04/25 10:44:29;;;;;;;8.40;0.70;;;11.40;64.60;;;;;;5073722;28;20040;-83
2023/04/25 10:47:00;;;;;;;7.38;0.63;;;11.40;65.60;;;;;;5073745;28;20024;-84
2023/04/25 10:49:30;;;;;;;4.80;0.80;;;11.30;65.70;;;;;;5055516;28;20035;-82
2023/04/25 10:52:25;;;;;;;5.05;0.77;;;11.40;66.40;;;;;;5074256;28;20377;-84
2023/04/25 10:54:53;;;;;;;3.67;0.60;;;11.50;66.70;;;;;;5072038;28;20020;-84
2023/04/25 10:57:36;;;;;;;3.17;0.60;;;11.70;65.60;;;;;;5073324;28;20049;-85
2023/04/25 11:00:11;;;;;;;4.57;1.05;;;11.90;65.10;;;;;;5072410;28;20016;-81
2023/04/25 11:02:47;;;;;;;5.43;0.40;;;12.10;65.10;;;;;;5073390;28;20021;-82
2023/04/25 11:05:23;;;;;;;4.28;0.52;;;12.30;65.10;;;;;;5072431;28;20049;-83
2023/04/25 11:07:57;;;;;;;4.13;0.77;;;12.60;64.40;;;;;;5072093;28;20028;-84
2023/04/25 11:10:41;;;;;;;5.15;0.50;;;12.90;63.20;;;;;;5072338;28;20071;-84
2023/04/25 11:13:07;;;;;;;5.50;0.50;;;13.50;64.00;;;;;;5055348;28;20037;-86
2023/04/25 11:15:32;;;;;;;2.30;0.45;;;14.10;62.90;;;;;;5072157;28;20116;-86
2023/04/25 11:17:58;;;;;;;4.43;0.50;;;14.60;61.40;;;;;;5055166;28;20487;-82
2023/04/25 11:20:26;;;;;;;6.18;0.95;;;15.20;59.70;;;;;;5072486;28;20059;-86
2023/04/25 11:22:51;;;;;;;3.45;0.50;;;15.80;57.10;;;;;;5073164;28;20028;-85
2023/04/25 11:25:17;;;;;;;7.63;0.63;;;16.30;56.80;;;;;;5073316;28;20032;-83
2023/04/25 11:27:52;;;;;;;6.03;0.70;;;16.70;54.30;;;;;;5071967;28;20032;-84
2023/04/25 11:30:18;;;;;;;3.88;0.80;;;17.10;53.10;;;;;;5071955;28;20050;-81
2023/04/25 11:32:44;;;;;;;5.25;0.60;;;17.60;52.80;;;;;;5075537;28;20123;-82
2023/04/25 11:35:10;;;;;;;4.35;0.70;;;18.30;53.30;;;;;;5059247;28;20480;-82
2023/04/25 11:37:38;;;;;;;2.67;0.47;;;18.90;50.60;;;;;;5058611;28;20031;-85
2023/04/25 11:40:06;;;;;;;6.00;0.85;;;19.50;51.50;;;;;;5075206;28;20365;-84
2023/04/25 11:42:33;;;;;;;2.85;0.60;;;19.90;50.20;;;;;;5075429;28;20090;-84
2023/04/25 11:44:59;;;;;;;4.68;0.50;;;19.90;46.70;;;;;;5076662;28;20016;-85
2023/04/25 11:47:32;;;;;;;3.80;0.50;;;19.40;45.80;;;;;;5075852;28;20040;-84
2023/04/25 11:50:02;;;;;;;4.97;0.70;;;19.20;45.10;;;;;;5075625;28;20100;-84
2023/04/25 11:52:43;;;;;;;4.78;0.68;;;18.90;44.90;;;;;;5075021;28;20370;-85
2023/04/25 11:55:19;;;;;;;5.53;0.57;;;18.90;45.80;;;;;;5075278;28;20388;-84
2023/04/25 11:57:52;;;;;;;2.70;0.60;;;19.20;45.40;;;;;;5076602;28;20427;-84
2023/04/25 12:00:22;;;;;;;4.60;0.60;;;19.60;46.10;;;;;;5075198;28;20024;-85
2023/04/25 12:02:58;;;;;;;2.55;0.50;;;19.50;44.50;;;;;;5072986;28;20029;-85
2023/04/25 12:05:29;;;;;;;2.10;0.50;;;19.50;44.90;;;;;;5064203;28;20049;-84
2023/04/25 12:07:55;;;;;;;3.72;0.55;;;19.40;44.40;;;;;;5075522;28;20036;-85
2023/04/25 12:10:21;;;;;;;5.20;0.77;;;19.00;43.00;;;;;;5058448;28;20028;-83
2023/04/25 12:12:47;;;;;;;3.70;0.60;;;18.30;45.00;;;;;;5044320;28;20056;-81
2023/04/25 12:15:22;;;;;;;4.50;0.70;;;17.30;47.60;;;;;;5056417;28;20032;-84
2023/04/25 12:17:50;;;;;;;6.50;0.80;;;16.40;50.00;;;;;;5071727;28;20427;-84
2023/04/25 12:20:19;;;;;;;4.32;0.63;;;15.50;51.90;;;;;;5074779;28;20093;-82
2023/04/25 12:22:47;;;;;;;5.03;0.85;;;14.80;53.80;;;;;;5076086;28;20029;-84
2023/04/25 12:25:33;;;;;;;5.32;0.98;;;14.10;55.00;;;;;;5058233;28;20028;-84
2023/04/25 12:28:20;;;;;;;7.38;0.75;;;13.50;55.80;;;;;;5074795;28;20530;-82
2023/04/25 12:31:01;;;;;;;4.85;0.80;;;13.00;57.00;;;;;;5074750;28;20052;-82
2023/04/25 12:33:29;;;;;;;9.63;1.02;;;12.70;58.00;;;;;;5075909;28;20072;-86
2023/04/25 12:35:55;;;;;;;5.45;0.70;;;12.50;58.00;;;;;;5075709;28;20100;-83
2023/04/25 12:38:26;;;;;;;3.45;0.77;;;12.40;57.80;;;;;;5075606;28;20469;-83
2023/04/25 12:40:52;;;;;;;6.65;0.70;;;12.30;58.10;;;;;;5074420;28;20108;-83
2023/04/25 12:43:18;;;;;;;6.05;0.82;;;12.30;58.50;;;;;;5075778;28;20056;-81
2023/04/25 12:45:45;;;;;;;6.32;0.82;;;12.30;58.10;;;;;;5057842;28;20496;-84
2023/04/25 12:48:10;;;;;;;4.93;0.70;;;12.20;57.90;;;;;;5075716;28;20107;-83